Marshall, NC (28753)

10:43 PM EST on February 11, 2016 (GMT -0500)
RAWS | | Change Station
CLOSE
Current Station
Personal Weather Station
Location: Marshall, NC
Elevation: 2149 ft
Nearby Weather Stations

Elev 2149 ft 35.80 °N, 82.65 °W | Updated 35 minutes ago

Partly Cloudy
Partly Cloudy
26 °F
Feels Like 26 °F
N
1
Wind Variable Wind from ESE
Gusts 3.0 mph

Today
High -- | Low -- °F
--% Chance of Precip.
Yesterday
High -- | Low -- °F
Precip. -- in
Pressure 30.23 in
Visibility 10.0 miles
Clouds Clear
Windchill 26 °F
Dew Point 19 °F
Humidity 75%
Rainfall in
Snow Depth Not available.
7:22 AM 6:08 PM
Waxing Crescent, 17% visible
METAR KAVL 120254Z 36005KT 10SM CLR M01/M08 A3018 RMK AO2 SLP235 T10111083 50007
Pressure 30.23 in
Visibility 10.0 miles
Clouds Clear
Windchill 26 °F
Dew Point 19 °F
Humidity 75%
Rainfall in
Snow Depth Not available.
7:22 AM 6:08 PM
Waxing Crescent, 17% visible
METAR KAVL 120254Z 36005KT 10SM CLR M01/M08 A3018 RMK AO2 SLP235 T10111083 50007

10-Day Weather Forecast

Almanac

Astronomy

Feb. 11, 2016 Rise Set
Actual Time
Civil Twilight
Nautical Twilight
Astronomical Twilight
Moon
Length of Visible Light
Length of Day
Tomorrow will be .
, % of the Moon is Illuminated

Today's Extremes

State Highs State Lows

Community

WunderPhotos

Upload Photos

1,892,254 photos uploaded!

WunderBlog® & News

Nearby

Air Quality

  Air Quality AQ Index Pollutant
Not available.

Snow Depth

Station Depth Elevation

Earthquake Activity

City Distance Mag. Time & Date
Minimum magnitude displayed is 2.5.

Coastal Water Temperatures

Place Temperature

Stations

Nearby Weather Stations

Station Location Temp. Windchill Dew Point Humidity Wind Precip. Elev Updated Type
                   

Watches & Warnings

There are currently no watches in effect.